首页
METAR-TAF:

METAR-TAF

机场 :

伯尔尼-贝尔普机场

伯尔尼, 瑞士

纬度: 46-55N, 经度: 007-30E, 海拔: 505米

当前天气观测

该预报发布于16分钟前的03:20 UTC
风速3节,风向东南,在东转东北之间变化
温度 15°C
湿度 94%
气压 1015 hPa
能见度10公里或以上
少量云层高于10000英尺
散云层高于12000英尺

METAR: LSZB 200320Z AUTO 13003KT 060V180 9999 FEW100 SCT120 15/14 Q1015

时间: 05:36 (03:36 UTC)

预报

该预报发布于1小时和11分钟前的02:25 UTC
预报有效从20日的 03点(UTC)到 20日的 12点(UTC)
风速3节,风向多变
能见度10公里或以上
散云层高于10000英尺
几率 30% :
短暂存在
从 20日的 03点(UTC)到 20日的 07点(UTC)
散云层高于8000英尺, 塔状积云.
阵雨
几率 40% :
短暂存在
从 20日的 10点(UTC)到 20日的 12点(UTC)
散云层高于8000英尺, 塔状积云.
阵雨
几率 30% :
短暂存在
从 20日的 10点(UTC)到 20日的 12点(UTC)
风速15节,风向西,有时为25节阵风
散云层高于8000英尺, 积雨云.
雷暴, 雨

TAF: LSZB 200225Z 2003/2012 VRB03KT 9999 SCT100 PROB30 TEMPO 2003/2007 SHRA SCT080TCU PROB40 TEMPO 2010/2012 SHRA SCT080TCU PROB30 TEMPO 2010/2012 26015G25KT TSRA SCT080CB

超过4000个机场的气象观测和天气预报(METAR&TAF报告)。

可查询的气象台以黄色和红色小点在地图上表示。

将鼠标移到小点上方,可查看气象台名称。

然后点击查看天气观测和预报。

如需切换地图:点击带黑十字的绿色按钮放大地图;点击带横线的绿色按钮缩小地图;或者点击绿色箭头查看邻近地区的地图。


METAR-TAF: